createdAt,value
2019-05-26T00:00:39.803Z,968.27
2019-05-26T00:01:39.819Z,968.23
2019-05-26T00:02:39.805Z,968.22
2019-05-26T00:03:39.773Z,968.18
2019-05-26T00:04:39.771Z,968.24
2019-05-26T00:05:39.759Z,968.22
2019-05-26T00:06:39.754Z,968.22
2019-05-26T00:07:39.743Z,968.24
2019-05-26T00:08:39.722Z,968.25
2019-05-26T00:09:39.712Z,968.30
2019-05-26T00:10:39.702Z,968.24
2019-05-26T00:11:39.704Z,968.28
2019-05-26T00:12:39.673Z,968.22
2019-05-26T00:13:39.692Z,968.26
2019-05-26T00:14:39.661Z,968.25
2019-05-26T00:15:39.661Z,968.18
2019-05-26T00:16:39.652Z,968.23
2019-05-26T00:17:39.651Z,968.20
2019-05-26T00:18:39.631Z,968.14
2019-05-26T00:19:39.611Z,968.14
2019-05-26T00:20:39.609Z,968.18
2019-05-26T00:21:39.610Z,968.24
2019-05-26T00:22:39.581Z,968.17
2019-05-26T00:23:39.570Z,968.21
2019-05-26T00:24:39.562Z,968.13
2019-05-26T00:25:39.557Z,968.14
2019-05-26T00:26:39.560Z,968.14
2019-05-26T00:27:39.540Z,968.09
2019-05-26T00:28:39.519Z,968.14
2019-05-26T00:29:39.524Z,968.18
2019-05-26T00:30:39.500Z,968.18
2019-05-26T00:31:39.509Z,968.20
2019-05-26T00:32:39.480Z,968.22
2019-05-26T00:33:39.469Z,968.21
2019-05-26T00:34:39.470Z,968.18
2019-05-26T00:35:39.463Z,968.20
2019-05-26T00:36:39.458Z,968.09
2019-05-26T00:37:48.958Z,968.16
2019-05-26T00:38:40.418Z,968.12
2019-05-26T00:39:39.413Z,968.17
2019-05-26T00:40:39.401Z,968.12
2019-05-26T00:41:39.388Z,968.13
2019-05-26T00:42:39.388Z,968.16
2019-05-26T00:43:39.388Z,968.13
2019-05-26T00:44:39.358Z,968.13
2019-05-26T00:45:39.378Z,968.13
2019-05-26T00:46:39.337Z,968.12
2019-05-26T00:47:39.347Z,968.17
2019-05-26T00:48:39.319Z,968.19
2019-05-26T00:49:39.310Z,968.15
2019-05-26T00:50:39.297Z,968.17
2019-05-26T00:51:39.302Z,968.17
2019-05-26T00:52:39.296Z,968.11
2019-05-26T00:53:39.267Z,968.14
2019-05-26T00:54:39.256Z,968.10
2019-05-26T00:55:39.247Z,968.08
2019-05-26T00:56:39.236Z,968.08
2019-05-26T00:57:39.257Z,968.13
2019-05-26T00:58:39.238Z,968.08
2019-05-26T00:59:39.216Z,968.08
2019-05-26T01:00:39.206Z,968.07
2019-05-26T01:01:39.208Z,968.07
2019-05-26T01:02:39.197Z,968.08
2019-05-26T01:03:39.165Z,968.06
2019-05-26T01:04:39.155Z,968.11
2019-05-26T01:05:39.152Z,968.07
2019-05-26T01:06:39.135Z,968.08
2019-05-26T01:07:39.208Z,968.06
2019-05-26T01:08:39.115Z,968.06
2019-05-26T01:09:39.106Z,968.07
2019-05-26T01:10:39.094Z,968.13
2019-05-26T01:11:39.083Z,968.04
2019-05-26T01:12:39.104Z,968.06
2019-05-26T01:13:39.073Z,968.06
2019-05-26T01:14:39.054Z,968.14
2019-05-26T01:15:39.048Z,968.05
2019-05-26T01:16:39.044Z,968.11
2019-05-26T01:17:39.045Z,968.14
2019-05-26T01:18:39.022Z,968.13
2019-05-26T01:19:39.021Z,968.13
2019-05-26T01:20:39.001Z,968.07
2019-05-26T01:21:38.997Z,968.12
2019-05-26T01:22:38.987Z,968.12
2019-05-26T01:23:38.962Z,968.07
2019-05-26T01:24:38.954Z,968.10
2019-05-26T01:25:38.942Z,968.10
2019-05-26T01:26:38.923Z,968.07
2019-05-26T01:27:38.926Z,968.10
2019-05-26T01:28:38.921Z,968.11
2019-05-26T01:29:38.911Z,968.11
2019-05-26T01:30:38.995Z,968.13
2019-05-26T01:31:38.882Z,968.08
2019-05-26T01:32:38.886Z,968.09
2019-05-26T01:33:38.875Z,968.09
2019-05-26T01:34:38.852Z,968.12
2019-05-26T01:35:38.842Z,968.13
2019-05-26T01:36:38.832Z,968.15
2019-05-26T01:37:38.843Z,968.14
2019-05-26T01:38:38.819Z,968.23
2019-05-26T01:39:38.800Z,968.23
2019-05-26T01:40:38.796Z,968.16
2019-05-26T01:41:38.772Z,968.22
2019-05-26T01:42:38.784Z,968.18
2019-05-26T01:43:38.759Z,968.15
2019-05-26T01:44:38.751Z,968.23
2019-05-26T01:45:38.751Z,968.15
2019-05-26T01:46:38.734Z,968.18
2019-05-26T01:47:38.742Z,968.16
2019-05-26T01:48:38.711Z,968.23
2019-05-26T01:49:38.699Z,968.27
2019-05-26T01:50:38.689Z,968.22
2019-05-26T01:51:38.680Z,968.30
2019-05-26T01:52:38.702Z,968.21
2019-05-26T01:53:38.659Z,968.24
2019-05-26T01:54:40.926Z,968.22
2019-05-26T01:55:38.639Z,968.21
2019-05-26T01:56:38.619Z,968.19
2019-05-26T01:57:38.620Z,968.17
2019-05-26T01:58:38.625Z,968.15
2019-05-26T01:59:38.599Z,968.17
2019-05-26T02:00:38.588Z,968.17
2019-05-26T02:01:38.579Z,968.20
2019-05-26T02:02:38.578Z,968.16
2019-05-26T02:03:38.571Z,968.15
2019-05-26T02:04:38.538Z,968.14
2019-05-26T02:05:38.530Z,968.16
2019-05-26T02:06:38.518Z,968.18
2019-05-26T02:07:38.512Z,968.16
2019-05-26T02:08:39.857Z,968.08
2019-05-26T02:09:38.498Z,968.12
2019-05-26T02:10:38.490Z,968.09
2019-05-26T02:11:38.476Z,968.12
2019-05-26T02:12:38.468Z,968.15
2019-05-26T02:13:38.468Z,968.19
2019-05-26T02:14:38.459Z,968.06
2019-05-26T02:15:38.442Z,968.16
2019-05-26T02:16:38.427Z,968.20
2019-05-26T02:17:38.433Z,968.11
2019-05-26T02:18:38.444Z,968.12
2019-05-26T02:19:38.408Z,968.20
2019-05-26T02:20:38.400Z,968.17
2019-05-26T02:21:38.379Z,968.15
2019-05-26T02:22:38.366Z,968.12
2019-05-26T02:23:38.366Z,968.17
2019-05-26T02:24:38.346Z,968.13
2019-05-26T02:25:38.346Z,968.13
2019-05-26T02:26:38.327Z,968.13
2019-05-26T02:27:38.326Z,968.13
2019-05-26T02:28:38.315Z,968.16
2019-05-26T02:29:38.296Z,968.11
2019-05-26T02:30:38.292Z,968.15
2019-05-26T02:31:38.290Z,968.13
2019-05-26T02:32:38.335Z,968.18
2019-05-26T02:33:38.268Z,968.20
2019-05-26T02:34:38.246Z,968.17
2019-05-26T02:35:38.246Z,968.19
2019-05-26T02:36:38.231Z,968.18
2019-05-26T02:37:38.215Z,968.16
2019-05-26T02:38:57.362Z,968.17
2019-05-26T02:39:39.217Z,968.12
2019-05-26T02:40:38.204Z,968.13
2019-05-26T02:41:38.174Z,968.14
2019-05-26T02:42:38.171Z,968.08
2019-05-26T02:43:38.164Z,968.10
2019-05-26T02:44:38.147Z,968.07
2019-05-26T02:45:38.170Z,968.09
2019-05-26T02:46:38.126Z,968.10
2019-05-26T02:47:38.118Z,968.10
2019-05-26T02:48:38.136Z,968.13
2019-05-26T02:49:38.096Z,968.12
2019-05-26T02:50:38.085Z,968.18
2019-05-26T02:51:38.077Z,968.20
2019-05-26T02:52:38.073Z,968.18
2019-05-26T02:53:38.054Z,968.10
2019-05-26T02:54:38.100Z,968.18
2019-05-26T02:55:38.034Z,968.15
2019-05-26T02:56:38.038Z,968.14
2019-05-26T02:57:38.032Z,968.14
2019-05-26T02:58:38.014Z,968.20
2019-05-26T02:59:38.025Z,968.10
2019-05-26T03:00:38.002Z,968.20
2019-05-26T03:01:37.985Z,968.10
2019-05-26T03:02:37.972Z,968.12
2019-05-26T03:03:37.981Z,968.09
2019-05-26T03:04:37.981Z,968.17
2019-05-26T03:05:37.951Z,968.17
2019-05-26T03:06:37.931Z,968.15
2019-05-26T03:07:37.951Z,968.12
2019-05-26T03:08:37.922Z,968.13
2019-05-26T03:09:37.911Z,968.16
2019-05-26T03:10:37.915Z,968.12
2019-05-26T03:11:37.897Z,968.18
2019-05-26T03:12:37.891Z,968.13
2019-05-26T03:13:37.861Z,968.16
2019-05-26T03:14:37.870Z,968.18
2019-05-26T03:15:37.854Z,968.23
2019-05-26T03:16:37.839Z,968.19
2019-05-26T03:17:37.821Z,968.18
2019-05-26T03:18:37.819Z,968.18
2019-05-26T03:19:37.818Z,968.21
2019-05-26T03:20:37.790Z,968.20
2019-05-26T03:21:37.782Z,968.19
2019-05-26T03:22:37.779Z,968.15
2019-05-26T03:23:37.767Z,968.18
2019-05-26T03:24:37.768Z,968.17
2019-05-26T03:25:37.738Z,968.21
2019-05-26T03:26:37.738Z,968.22
2019-05-26T03:27:37.730Z,968.23
2019-05-26T03:28:37.719Z,968.15
2019-05-26T03:29:37.728Z,968.18
2019-05-26T03:30:37.702Z,968.21
2019-05-26T03:31:37.701Z,968.23
2019-05-26T03:32:37.696Z,968.19
2019-05-26T03:33:37.671Z,968.20
2019-05-26T03:34:37.658Z,968.28
2019-05-26T03:35:37.676Z,968.30
2019-05-26T03:36:37.646Z,968.22
2019-05-26T03:37:37.638Z,968.26
2019-05-26T03:38:37.622Z,968.19
2019-05-26T03:39:45.300Z,968.31
2019-05-26T03:40:38.622Z,968.25
2019-05-26T03:41:37.596Z,968.31
2019-05-26T03:42:37.577Z,968.29
2019-05-26T03:43:37.565Z,968.29
2019-05-26T03:44:37.567Z,968.29
2019-05-26T03:45:37.566Z,968.28
2019-05-26T03:46:37.536Z,968.33
2019-05-26T03:47:37.592Z,968.26
2019-05-26T03:48:37.525Z,968.25
2019-05-26T03:49:37.518Z,968.27
2019-05-26T03:50:37.524Z,968.21
2019-05-26T03:51:37.495Z,968.23
2019-05-26T03:52:37.491Z,968.18
2019-05-26T03:53:37.465Z,968.16
2019-05-26T03:54:37.468Z,968.19
2019-05-26T03:55:37.465Z,968.21
2019-05-26T03:56:37.445Z,968.17
2019-05-26T03:57:37.435Z,968.16
2019-05-26T03:58:37.419Z,968.15
2019-05-26T03:59:37.407Z,968.14
2019-05-26T04:00:37.414Z,968.18
2019-05-26T04:01:37.385Z,968.17
2019-05-26T04:02:37.373Z,968.19
2019-05-26T04:03:37.383Z,968.21
2019-05-26T04:04:37.355Z,968.14
2019-05-26T04:05:37.365Z,968.13
2019-05-26T04:06:37.354Z,968.14
2019-05-26T04:07:37.324Z,968.20
2019-05-26T04:08:37.313Z,968.17
2019-05-26T04:09:37.304Z,968.17
2019-05-26T04:10:37.321Z,968.12
2019-05-26T04:11:37.290Z,968.18
2019-05-26T04:12:37.391Z,968.22
2019-05-26T04:13:37.308Z,968.22
2019-05-26T04:14:37.263Z,968.26
2019-05-26T04:15:37.263Z,968.15
2019-05-26T04:16:37.231Z,968.18
2019-05-26T04:17:37.245Z,968.25
2019-05-26T04:18:37.216Z,968.21
2019-05-26T04:19:37.209Z,968.21
2019-05-26T04:20:37.221Z,968.27
2019-05-26T04:21:37.189Z,968.16
2019-05-26T04:22:37.182Z,968.16
2019-05-26T04:23:37.174Z,968.21
2019-05-26T04:24:37.161Z,968.25
2019-05-26T04:25:37.166Z,968.24
2019-05-26T04:26:37.141Z,968.22
2019-05-26T04:27:37.146Z,968.18
2019-05-26T04:28:37.131Z,968.19
2019-05-26T04:29:37.121Z,968.14
2019-05-26T04:30:37.145Z,968.20
2019-05-26T04:31:37.091Z,968.15
2019-05-26T04:32:37.091Z,968.19
2019-05-26T04:33:37.078Z,968.14
2019-05-26T04:34:37.070Z,968.17
2019-05-26T04:35:37.059Z,968.12
2019-05-26T04:36:37.050Z,968.07
2019-05-26T04:37:37.038Z,968.21
2019-05-26T04:38:37.027Z,968.20
2019-05-26T04:39:37.018Z,968.19
2019-05-26T04:40:37.009Z,968.15
2019-05-26T04:41:37.017Z,968.17
2019-05-26T04:42:37.030Z,968.21
2019-05-26T04:43:36.989Z,968.18
2019-05-26T04:44:36.981Z,968.22
2019-05-26T04:45:36.957Z,968.16
2019-05-26T04:46:36.972Z,968.20
2019-05-26T04:47:36.939Z,968.26
2019-05-26T04:48:36.927Z,968.25
2019-05-26T04:49:37.844Z,968.29
2019-05-26T04:50:36.907Z,968.27
2019-05-26T04:51:36.908Z,968.24
2019-05-26T04:52:36.876Z,968.24
2019-05-26T04:53:36.887Z,968.27
2019-05-26T04:54:36.857Z,968.31
2019-05-26T04:55:36.856Z,968.39
2019-05-26T04:56:36.873Z,968.35
2019-05-26T04:57:36.834Z,968.34
2019-05-26T04:58:36.816Z,968.31
2019-05-26T04:59:36.816Z,968.37
2019-05-26T05:00:36.819Z,968.36
2019-05-26T05:01:36.806Z,968.29
2019-05-26T05:02:36.786Z,968.27
2019-05-26T05:03:36.776Z,968.28
2019-05-26T05:04:36.766Z,968.25
2019-05-26T05:05:36.754Z,968.26
2019-05-26T05:06:36.755Z,968.31
2019-05-26T05:07:36.734Z,968.27
2019-05-26T05:08:36.728Z,968.29
2019-05-26T05:09:36.725Z,968.31
2019-05-26T05:10:42.268Z,968.32
2019-05-26T05:11:37.714Z,968.28
2019-05-26T05:12:36.695Z,968.31
2019-05-26T05:13:36.683Z,968.32
2019-05-26T05:14:36.664Z,968.29
2019-05-26T05:15:36.663Z,968.28
2019-05-26T05:16:36.664Z,968.32
2019-05-26T05:17:36.645Z,968.35
2019-05-26T05:18:36.631Z,968.35
2019-05-26T05:19:36.613Z,968.29
2019-05-26T05:20:36.615Z,968.30
2019-05-26T05:21:36.614Z,968.28
2019-05-26T05:22:36.597Z,968.26
2019-05-26T05:23:36.581Z,968.35
2019-05-26T05:24:36.572Z,968.34
2019-05-26T05:25:36.562Z,968.33
2019-05-26T05:26:36.562Z,968.30
2019-05-26T05:27:36.541Z,968.34
2019-05-26T05:28:36.532Z,968.31
2019-05-26T05:29:36.521Z,968.31
2019-05-26T05:30:36.514Z,968.35
2019-05-26T05:31:36.521Z,968.32
2019-05-26T05:32:36.494Z,968.34
2019-05-26T05:33:36.490Z,968.37
2019-05-26T05:34:36.474Z,968.39
2019-05-26T05:35:36.476Z,968.35
2019-05-26T05:36:36.491Z,968.37
2019-05-26T05:37:36.440Z,968.34
2019-05-26T05:38:36.435Z,968.41
2019-05-26T05:39:36.432Z,968.44
2019-05-26T05:40:36.410Z,968.38
2019-05-26T05:41:36.409Z,968.40
2019-05-26T05:42:36.413Z,968.41
2019-05-26T05:43:36.388Z,968.42
2019-05-26T05:44:36.380Z,968.42
2019-05-26T05:45:36.369Z,968.39
2019-05-26T05:46:36.365Z,968.45
2019-05-26T05:47:36.358Z,968.48
2019-05-26T05:48:36.339Z,968.45
2019-05-26T05:49:36.323Z,968.44
2019-05-26T05:50:39.099Z,968.52
2019-05-26T05:51:36.311Z,968.46
2019-05-26T05:52:36.308Z,968.46
2019-05-26T05:53:36.288Z,968.45
2019-05-26T05:54:36.280Z,968.50
2019-05-26T05:55:36.281Z,968.48
2019-05-26T05:56:36.248Z,968.47
2019-05-26T05:57:36.261Z,968.43
2019-05-26T05:58:36.238Z,968.39
2019-05-26T05:59:36.233Z,968.47
2019-05-26T06:00:36.222Z,968.49
2019-05-26T06:01:36.198Z,968.47
2019-05-26T06:02:36.210Z,968.44
2019-05-26T06:03:36.191Z,968.49
2019-05-26T06:04:36.177Z,968.48
2019-05-26T06:05:36.166Z,968.48
2019-05-26T06:06:36.167Z,968.36
2019-05-26T06:07:36.159Z,968.45
2019-05-26T06:08:36.143Z,968.51
2019-05-26T06:09:36.132Z,968.48
2019-05-26T06:10:36.119Z,968.43
2019-05-26T06:11:36.106Z,968.45
2019-05-26T06:12:36.136Z,968.47
2019-05-26T06:13:36.084Z,968.48
2019-05-26T06:14:36.078Z,968.54
2019-05-26T06:15:36.066Z,968.48
2019-05-26T06:16:36.057Z,968.52
2019-05-26T06:17:36.058Z,968.50
2019-05-26T06:18:36.026Z,968.53
2019-05-26T06:19:36.017Z,968.48
2019-05-26T06:20:36.016Z,968.49
2019-05-26T06:21:36.003Z,968.47
2019-05-26T06:22:35.994Z,968.40
2019-05-26T06:23:37.062Z,968.39
2019-05-26T06:24:35.974Z,968.42
2019-05-26T06:25:35.958Z,968.45
2019-05-26T06:26:35.953Z,968.44
2019-05-26T06:27:35.948Z,968.41
2019-05-26T06:28:35.932Z,968.47
2019-05-26T06:29:35.991Z,968.39
2019-05-26T06:30:35.904Z,968.38
2019-05-26T06:31:35.937Z,968.31
2019-05-26T06:32:35.892Z,968.40
2019-05-26T06:33:35.896Z,968.37
2019-05-26T06:34:35.864Z,968.28
2019-05-26T06:35:35.853Z,968.29
2019-05-26T06:36:35.843Z,968.36
2019-05-26T06:37:35.832Z,968.33
2019-05-26T06:38:35.831Z,968.35
2019-05-26T06:39:35.811Z,968.30
2019-05-26T06:40:35.794Z,968.31
2019-05-26T06:41:35.783Z,968.30
2019-05-26T06:42:35.772Z,968.34
2019-05-26T06:43:35.783Z,968.29
2019-05-26T06:44:52.043Z,968.29
2019-05-26T06:45:36.743Z,968.27
2019-05-26T06:46:35.732Z,968.29
2019-05-26T06:47:35.721Z,968.28
2019-05-26T06:48:35.711Z,968.31
2019-05-26T06:49:35.714Z,968.28
2019-05-26T06:50:35.692Z,968.28
2019-05-26T06:51:35.705Z,968.29
2019-05-26T06:52:35.670Z,968.32
2019-05-26T06:53:37.464Z,968.36
2019-05-26T06:54:35.640Z,968.32
2019-05-26T06:55:35.641Z,968.33
2019-05-26T06:56:35.621Z,968.33
2019-05-26T06:57:35.612Z,968.37
2019-05-26T06:58:35.610Z,968.33
2019-05-26T06:59:35.582Z,968.32
2019-05-26T07:00:35.570Z,968.35
2019-05-26T07:01:35.568Z,968.28
2019-05-26T07:02:35.562Z,968.35
2019-05-26T07:03:35.550Z,968.32
2019-05-26T07:04:35.530Z,968.25
2019-05-26T07:05:35.523Z,968.27
2019-05-26T07:06:35.510Z,968.32
2019-05-26T07:07:35.497Z,968.28
2019-05-26T07:08:35.501Z,968.29
2019-05-26T07:09:35.478Z,968.22
2019-05-26T07:10:35.459Z,968.27
2019-05-26T07:11:50.172Z,968.22
2019-05-26T07:12:36.443Z,968.20
2019-05-26T07:13:35.450Z,968.26
2019-05-26T07:14:35.428Z,968.25
2019-05-26T07:15:35.408Z,968.24
2019-05-26T07:16:38.349Z,968.22
2019-05-26T07:17:35.439Z,968.30
2019-05-26T07:18:35.388Z,968.25
2019-05-26T07:19:35.368Z,968.23
2019-05-26T07:20:35.358Z,968.21
2019-05-26T07:21:35.339Z,968.29
2019-05-26T07:22:35.327Z,968.26
2019-05-26T07:23:35.329Z,968.21
2019-05-26T07:24:35.307Z,968.18
2019-05-26T07:25:35.299Z,968.25
2019-05-26T07:26:35.287Z,968.15
2019-05-26T07:27:35.278Z,968.17
2019-05-26T07:28:35.285Z,968.27
2019-05-26T07:29:35.255Z,968.18
2019-05-26T07:30:35.247Z,968.27
2019-05-26T07:31:35.251Z,968.20
2019-05-26T07:32:35.226Z,968.23
2019-05-26T07:33:35.226Z,968.20
2019-05-26T07:34:35.196Z,968.24
2019-05-26T07:35:35.194Z,968.26
2019-05-26T07:36:35.175Z,968.25
2019-05-26T07:37:35.175Z,968.20
2019-05-26T07:38:35.176Z,968.20
2019-05-26T07:39:35.146Z,968.21
2019-05-26T07:40:35.136Z,968.15
2019-05-26T07:41:35.126Z,968.22
2019-05-26T07:42:35.106Z,968.21
2019-05-26T07:43:35.117Z,968.16
2019-05-26T07:44:35.107Z,968.07
2019-05-26T07:45:35.083Z,968.16
2019-05-26T07:46:35.065Z,968.12
2019-05-26T07:47:35.075Z,968.12
2019-05-26T07:48:36.182Z,968.05
2019-05-26T07:49:35.026Z,968.08
2019-05-26T07:50:35.014Z,968.06
2019-05-26T07:51:35.008Z,968.07
2019-05-26T07:52:34.997Z,968.09
2019-05-26T07:53:35.004Z,968.05
2019-05-26T07:54:34.976Z,968.10
2019-05-26T07:55:34.965Z,968.06
2019-05-26T07:56:35.074Z,968.11
2019-05-26T07:57:34.944Z,968.18
2019-05-26T07:58:34.923Z,968.13
2019-05-26T07:59:34.936Z,968.12
2019-05-26T08:00:34.894Z,968.11
2019-05-26T08:01:36.468Z,968.06
2019-05-26T08:02:35.463Z,968.09
2019-05-26T08:03:35.224Z,968.20
2019-05-26T08:04:34.863Z,968.09
2019-05-26T08:05:34.906Z,968.12
2019-05-26T08:06:34.955Z,968.05
2019-05-26T08:07:34.823Z,968.19
2019-05-26T08:08:34.813Z,968.01
2019-05-26T08:09:34.816Z,968.03
2019-05-26T08:10:34.792Z,968.05
2019-05-26T08:11:34.773Z,968.01
2019-05-26T08:12:34.767Z,968.04
2019-05-26T08:13:34.751Z,968.03
2019-05-26T08:14:34.753Z,968.07
2019-05-26T08:15:34.732Z,968.06
2019-05-26T08:16:34.712Z,967.97
2019-05-26T08:17:34.703Z,968.00
2019-05-26T08:18:34.692Z,968.03
2019-05-26T08:19:34.711Z,967.96
2019-05-26T08:20:34.671Z,968.05
2019-05-26T08:21:34.671Z,967.98
2019-05-26T08:22:34.641Z,968.03
2019-05-26T08:23:34.641Z,967.99
2019-05-26T08:24:34.649Z,967.94
2019-05-26T08:25:34.601Z,967.94
2019-05-26T08:26:34.608Z,967.98
2019-05-26T08:27:34.591Z,967.95
2019-05-26T08:28:34.571Z,967.95
2019-05-26T08:29:34.573Z,967.91
2019-05-26T08:30:34.559Z,967.94
2019-05-26T08:31:34.541Z,967.90
2019-05-26T08:32:34.544Z,967.94
2019-05-26T08:33:34.510Z,967.87
2019-05-26T08:34:34.535Z,967.86
2019-05-26T08:35:34.503Z,967.85
2019-05-26T08:36:34.482Z,967.86
2019-05-26T08:37:34.549Z,967.80
2019-05-26T08:38:34.450Z,967.75
2019-05-26T08:39:34.491Z,967.70
2019-05-26T08:40:34.428Z,967.78
2019-05-26T08:41:34.436Z,967.78
2019-05-26T08:42:44.209Z,967.75
2019-05-26T08:43:35.410Z,967.74
2019-05-26T08:44:34.407Z,967.78
2019-05-26T08:45:34.370Z,967.83
2019-05-26T08:46:34.349Z,967.77
2019-05-26T08:47:34.349Z,967.73
2019-05-26T08:48:34.338Z,967.74
2019-05-26T08:49:34.349Z,967.70
2019-05-26T08:50:34.610Z,967.74
2019-05-26T08:51:34.289Z,967.62
2019-05-26T08:52:34.289Z,967.62
2019-05-26T08:53:34.289Z,967.68
2019-05-26T08:54:34.268Z,967.65
2019-05-26T08:55:34.238Z,967.66
2019-05-26T08:56:34.229Z,967.66
2019-05-26T08:57:34.218Z,967.62
2019-05-26T08:58:34.227Z,967.63
2019-05-26T08:59:34.199Z,967.62
2019-05-26T09:00:34.201Z,967.64
2019-05-26T09:01:34.170Z,967.63
2019-05-26T09:02:34.156Z,967.62
2019-05-26T09:03:34.137Z,967.55
2019-05-26T09:04:34.138Z,967.61
2019-05-26T09:05:34.137Z,967.52
2019-05-26T09:06:34.099Z,967.54
2019-05-26T09:07:34.109Z,967.54
2019-05-26T09:08:34.077Z,967.57
2019-05-26T09:09:34.069Z,967.53
2019-05-26T09:10:34.067Z,967.52
2019-05-26T09:11:34.057Z,967.60
2019-05-26T09:12:34.030Z,967.58
2019-05-26T09:13:34.017Z,967.54
2019-05-26T09:14:34.067Z,967.52
2019-05-26T09:15:34.095Z,967.52
2019-05-26T09:16:33.995Z,967.53
2019-05-26T09:17:34.029Z,967.50
2019-05-26T09:18:34.016Z,967.50
2019-05-26T09:19:33.954Z,967.49
2019-05-26T09:20:33.946Z,967.50
2019-05-26T09:21:33.928Z,967.49
2019-05-26T09:22:33.898Z,967.51
2019-05-26T09:23:33.897Z,967.50
2019-05-26T09:24:33.890Z,967.51
2019-05-26T09:25:33.877Z,967.53
2019-05-26T09:26:33.865Z,967.50
2019-05-26T09:27:33.845Z,967.54
2019-05-26T09:28:33.836Z,967.50
2019-05-26T09:29:33.817Z,967.49
2019-05-26T09:30:33.829Z,967.43
2019-05-26T09:31:34.357Z,967.39
2019-05-26T09:32:33.787Z,967.37
2019-05-26T09:33:33.775Z,967.34
2019-05-26T09:34:33.756Z,967.31
2019-05-26T09:35:33.775Z,967.33
2019-05-26T09:36:33.746Z,967.36
2019-05-26T09:37:33.734Z,967.37
2019-05-26T09:38:33.725Z,967.33
2019-05-26T09:39:33.707Z,967.29
2019-05-26T09:40:33.706Z,967.30
2019-05-26T09:41:33.690Z,967.32
2019-05-26T09:42:33.674Z,967.19
2019-05-26T09:43:33.665Z,967.24
2019-05-26T09:44:33.645Z,967.20
2019-05-26T09:45:33.647Z,967.28
2019-05-26T09:46:33.627Z,967.22
2019-05-26T09:47:33.616Z,967.24
2019-05-26T09:48:33.595Z,967.20
2019-05-26T09:49:33.594Z,967.22
2019-05-26T09:50:33.605Z,967.23
2019-05-26T09:51:33.967Z,967.21
2019-05-26T09:52:33.555Z,967.23
2019-05-26T09:53:33.544Z,967.19
2019-05-26T09:54:33.534Z,967.21
2019-05-26T09:55:33.535Z,967.17
2019-05-26T09:56:33.516Z,967.15
2019-05-26T09:57:33.502Z,967.18
2019-05-26T09:58:33.488Z,967.20
2019-05-26T09:59:33.474Z,967.20
2019-05-26T10:00:35.387Z,967.13
2019-05-26T10:01:33.453Z,967.15
2019-05-26T10:02:33.444Z,967.21
2019-05-26T10:03:33.586Z,967.16
2019-05-26T10:04:33.415Z,967.11
2019-05-26T10:05:33.424Z,967.19
2019-05-26T10:06:33.398Z,967.16
2019-05-26T10:07:33.386Z,967.17
2019-05-26T10:08:33.374Z,967.14
2019-05-26T10:09:33.364Z,967.12
2019-05-26T10:10:33.384Z,967.11
2019-05-26T10:11:33.344Z,967.15
2019-05-26T10:12:33.335Z,967.12
2019-05-26T10:13:33.344Z,967.12
2019-05-26T10:14:33.304Z,967.13
2019-05-26T10:15:33.296Z,967.07
2019-05-26T10:16:33.303Z,967.00
2019-05-26T10:17:33.278Z,967.04
2019-05-26T10:18:33.264Z,967.13
2019-05-26T10:19:33.244Z,967.10
2019-05-26T10:20:33.234Z,967.02
2019-05-26T10:21:33.244Z,967.00
2019-05-26T10:22:33.215Z,967.03
2019-05-26T10:23:33.206Z,966.98
2019-05-26T10:24:33.194Z,967.03
2019-05-26T10:25:33.187Z,966.98
2019-05-26T10:26:33.183Z,967.02
2019-05-26T10:27:33.153Z,967.03
2019-05-26T10:28:33.154Z,967.04
2019-05-26T10:29:33.134Z,966.99
2019-05-26T10:30:33.141Z,966.96
2019-05-26T10:31:33.124Z,967.02
2019-05-26T10:32:33.103Z,966.97
2019-05-26T10:33:33.093Z,966.95
2019-05-26T10:34:33.084Z,966.92
2019-05-26T10:35:33.072Z,966.97
2019-05-26T10:36:33.073Z,966.94
2019-05-26T10:37:33.042Z,966.96
2019-05-26T10:38:33.036Z,966.91
2019-05-26T10:39:33.023Z,966.92
2019-05-26T10:40:33.013Z,966.91
2019-05-26T10:41:33.015Z,966.90
2019-05-26T10:42:32.993Z,966.85
2019-05-26T10:43:46.343Z,966.91
2019-05-26T10:44:33.963Z,966.89
2019-05-26T10:45:34.452Z,966.86
2019-05-26T10:46:32.965Z,966.80
2019-05-26T10:47:32.956Z,966.86
2019-05-26T10:48:32.923Z,966.87
2019-05-26T10:49:32.913Z,966.88
2019-05-26T10:50:32.903Z,966.81
2019-05-26T10:51:32.903Z,966.76
2019-05-26T10:52:32.880Z,966.79
2019-05-26T10:53:32.873Z,966.78
2019-05-26T10:54:32.863Z,966.85
2019-05-26T10:55:32.853Z,966.76
2019-05-26T10:56:32.852Z,966.76
2019-05-26T10:57:32.836Z,966.67
2019-05-26T10:58:32.813Z,966.68
2019-05-26T10:59:32.803Z,966.66
2019-05-26T11:00:33.322Z,966.68
2019-05-26T11:01:32.900Z,966.77
2019-05-26T11:02:32.773Z,966.74
2019-05-26T11:03:32.763Z,966.73
2019-05-26T11:04:32.761Z,966.74
2019-05-26T11:05:32.742Z,966.71
2019-05-26T11:06:32.744Z,966.67
2019-05-26T11:07:32.732Z,966.62
2019-05-26T11:08:32.703Z,966.74
2019-05-26T11:09:32.702Z,966.63
2019-05-26T11:10:32.683Z,966.59
2019-05-26T11:11:32.682Z,966.61
2019-05-26T11:12:32.662Z,966.60
2019-05-26T11:13:32.652Z,966.62
2019-05-26T11:14:32.633Z,966.53
2019-05-26T11:15:32.631Z,966.58
2019-05-26T11:16:32.623Z,966.52
2019-05-26T11:17:32.616Z,966.54
2019-05-26T11:18:32.595Z,966.51
2019-05-26T11:19:32.583Z,966.53
2019-05-26T11:20:32.572Z,966.48
2019-05-26T11:21:32.560Z,966.49
2019-05-26T11:22:32.591Z,966.45
2019-05-26T11:23:32.542Z,966.54
2019-05-26T11:24:32.522Z,966.51
2019-05-26T11:25:32.511Z,966.48
2019-05-26T11:26:32.506Z,966.42
2019-05-26T11:27:32.502Z,966.41
2019-05-26T11:28:32.482Z,966.35
2019-05-26T11:29:32.471Z,966.42
2019-05-26T11:30:32.461Z,966.42
2019-05-26T11:31:32.451Z,966.51
2019-05-26T11:32:32.451Z,966.47
2019-05-26T11:33:32.431Z,966.49
2019-05-26T11:34:32.421Z,966.47
2019-05-26T11:35:32.429Z,966.40
2019-05-26T11:36:32.391Z,966.43
2019-05-26T11:37:32.406Z,966.44
2019-05-26T11:38:33.740Z,966.37
2019-05-26T11:39:32.363Z,966.44
2019-05-26T11:40:32.424Z,966.30
2019-05-26T11:41:32.343Z,966.32
2019-05-26T11:42:32.341Z,966.28
2019-05-26T11:43:32.311Z,966.31
2019-05-26T11:44:32.310Z,966.39
2019-05-26T11:45:32.292Z,966.31
2019-05-26T11:46:32.282Z,966.37
2019-05-26T11:47:32.283Z,966.30
2019-05-26T11:48:32.262Z,966.34
2019-05-26T11:49:32.255Z,966.31
2019-05-26T11:50:32.242Z,966.33
2019-05-26T11:51:32.259Z,966.32
2019-05-26T11:52:32.234Z,966.28
2019-05-26T11:53:32.214Z,966.33
2019-05-26T11:54:34.472Z,966.33
2019-05-26T11:55:32.186Z,966.33
2019-05-26T11:56:32.171Z,966.30
2019-05-26T11:57:32.171Z,966.31
2019-05-26T11:58:32.151Z,966.39
2019-05-26T11:59:32.143Z,966.35
2019-05-26T12:00:32.142Z,966.30
2019-05-26T12:01:32.128Z,966.31
2019-05-26T12:02:32.121Z,966.29
2019-05-26T12:03:32.101Z,966.31
2019-05-26T12:04:32.089Z,966.29
2019-05-26T12:05:32.076Z,966.25
2019-05-26T12:06:32.061Z,966.28
2019-05-26T12:07:32.071Z,966.25
2019-05-26T12:08:32.088Z,966.27
2019-05-26T12:09:32.031Z,966.23
2019-05-26T12:10:32.021Z,966.30
2019-05-26T12:11:32.011Z,966.24
2019-05-26T12:12:32.011Z,966.26
2019-05-26T12:13:31.981Z,966.22
2019-05-26T12:14:35.244Z,966.22
2019-05-26T12:15:31.961Z,966.13
2019-05-26T12:16:31.954Z,966.16
2019-05-26T12:17:31.951Z,966.21
2019-05-26T12:18:31.934Z,966.22
2019-05-26T12:19:31.923Z,966.11
2019-05-26T12:20:31.911Z,966.19
2019-05-26T12:21:31.901Z,966.14
2019-05-26T12:22:31.900Z,966.08
2019-05-26T12:23:31.879Z,966.17
2019-05-26T12:24:31.861Z,966.16
2019-05-26T12:25:31.851Z,966.15
2019-05-26T12:26:31.841Z,966.17
2019-05-26T12:27:31.845Z,966.06
2019-05-26T12:28:31.820Z,966.11